sensor_id;sensor_type;location;lat;lon;timestamp;P1;durP1;ratioP1;P2;durP2;ratioP2
15177;SDS011;7689;53.612;-2.416;2022-11-20T00:00:45;8.57;;;3.20;;
15177;SDS011;7689;53.612;-2.416;2022-11-20T00:03:12;7.13;;;3.00;;
15177;SDS011;7689;53.612;-2.416;2022-11-20T00:05:37;3.60;;;2.77;;
15177;SDS011;7689;53.612;-2.416;2022-11-20T00:08:03;6.70;;;3.30;;
15177;SDS011;7689;53.612;-2.416;2022-11-20T00:10:29;6.60;;;3.30;;
15177;SDS011;7689;53.612;-2.416;2022-11-20T00:12:55;6.93;;;3.10;;
15177;SDS011;7689;53.612;-2.416;2022-11-20T00:15:22;5.60;;;3.27;;
15177;SDS011;7689;53.612;-2.416;2022-11-20T00:17:48;4.87;;;3.50;;
15177;SDS011;7689;53.612;-2.416;2022-11-20T00:20:14;6.23;;;3.00;;
15177;SDS011;7689;53.612;-2.416;2022-11-20T00:22:40;3.50;;;2.93;;
15177;SDS011;7689;53.612;-2.416;2022-11-20T00:25:05;6.60;;;3.30;;
15177;SDS011;7689;53.612;-2.416;2022-11-20T00:27:31;9.63;;;3.13;;
15177;SDS011;7689;53.612;-2.416;2022-11-20T00:29:57;6.17;;;3.07;;
15177;SDS011;7689;53.612;-2.416;2022-11-20T00:32:22;6.53;;;3.17;;
15177;SDS011;7689;53.612;-2.416;2022-11-20T00:34:48;5.73;;;3.60;;
15177;SDS011;7689;53.612;-2.416;2022-11-20T00:37:13;8.57;;;3.40;;
15177;SDS011;7689;53.612;-2.416;2022-11-20T00:39:39;8.90;;;3.90;;
15177;SDS011;7689;53.612;-2.416;2022-11-20T00:42:05;7.93;;;3.80;;
15177;SDS011;7689;53.612;-2.416;2022-11-20T00:44:30;7.13;;;3.77;;
15177;SDS011;7689;53.612;-2.416;2022-11-20T00:46:56;11.47;;;4.23;;
15177;SDS011;7689;53.612;-2.416;2022-11-20T00:49:22;6.70;;;4.67;;
15177;SDS011;7689;53.612;-2.416;2022-11-20T00:51:47;5.97;;;3.90;;
15177;SDS011;7689;53.612;-2.416;2022-11-20T00:54:13;7.93;;;3.97;;
15177;SDS011;7689;53.612;-2.416;2022-11-20T00:56:38;7.77;;;3.60;;
15177;SDS011;7689;53.612;-2.416;2022-11-20T00:59:05;6.60;;;4.07;;
15177;SDS011;7689;53.612;-2.416;2022-11-20T01:01:30;8.70;;;4.50;;
15177;SDS011;7689;53.612;-2.416;2022-11-20T01:03:57;5.97;;;4.33;;
15177;SDS011;7689;53.612;-2.416;2022-11-20T01:06:28;8.07;;;4.00;;
15177;SDS011;7689;53.612;-2.416;2022-11-20T01:09:00;5.93;;;3.77;;
15177;SDS011;7689;53.612;-2.416;2022-11-20T01:11:33;7.13;;;3.87;;
15177;SDS011;7689;53.612;-2.416;2022-11-20T01:14:00;6.30;;;4.13;;
15177;SDS011;7689;53.612;-2.416;2022-11-20T01:16:28;7.97;;;3.90;;
15177;SDS011;7689;53.612;-2.416;2022-11-20T01:19:00;7.57;;;4.20;;
15177;SDS011;7689;53.612;-2.416;2022-11-20T01:21:28;6.23;;;4.03;;
15177;SDS011;7689;53.612;-2.416;2022-11-20T01:23:55;5.87;;;4.13;;
15177;SDS011;7689;53.612;-2.416;2022-11-20T01:26:22;5.67;;;3.30;;
15177;SDS011;7689;53.612;-2.416;2022-11-20T01:28:49;5.07;;;3.87;;
15177;SDS011;7689;53.612;-2.416;2022-11-20T01:33:49;7.63;;;3.93;;
15177;SDS011;7689;53.612;-2.416;2022-11-20T01:36:17;7.13;;;3.63;;
15177;SDS011;7689;53.612;-2.416;2022-11-20T01:38:44;7.87;;;3.97;;
15177;SDS011;7689;53.612;-2.416;2022-11-20T01:41:11;5.57;;;3.57;;
15177;SDS011;7689;53.612;-2.416;2022-11-20T01:44:01;8.03;;;3.60;;
15177;SDS011;7689;53.612;-2.416;2022-11-20T01:46:28;4.77;;;3.77;;
15177;SDS011;7689;53.612;-2.416;2022-11-20T01:48:57;4.70;;;3.77;;
15177;SDS011;7689;53.612;-2.416;2022-11-20T01:54:14;6.43;;;3.67;;
15177;SDS011;7689;53.612;-2.416;2022-11-20T01:56:44;6.50;;;4.07;;
15177;SDS011;7689;53.612;-2.416;2022-11-20T01:59:13;5.83;;;3.17;;
15177;SDS011;7689;53.612;-2.416;2022-11-20T02:01:42;6.43;;;3.47;;
15177;SDS011;7689;53.612;-2.416;2022-11-20T02:04:08;5.40;;;3.10;;
15177;SDS011;7689;53.612;-2.416;2022-11-20T02:06:36;3.97;;;3.20;;
15177;SDS011;7689;53.612;-2.416;2022-11-20T02:09:07;5.07;;;3.30;;
15177;SDS011;7689;53.612;-2.416;2022-11-20T02:11:33;4.30;;;3.20;;
15177;SDS011;7689;53.612;-2.416;2022-11-20T02:13:58;3.43;;;3.03;;
15177;SDS011;7689;53.612;-2.416;2022-11-20T02:16:26;6.07;;;2.93;;
15177;SDS011;7689;53.612;-2.416;2022-11-20T02:18:57;4.00;;;3.10;;
15177;SDS011;7689;53.612;-2.416;2022-11-20T02:24:15;4.83;;;2.77;;
15177;SDS011;7689;53.612;-2.416;2022-11-20T02:26:48;7.17;;;3.07;;
15177;SDS011;7689;53.612;-2.416;2022-11-20T02:29:31;2.70;;;2.50;;
15177;SDS011;7689;53.612;-2.416;2022-11-20T02:32:01;3.50;;;2.83;;
15177;SDS011;7689;53.612;-2.416;2022-11-20T02:34:27;5.03;;;3.00;;
15177;SDS011;7689;53.612;-2.416;2022-11-20T02:36:53;6.00;;;2.83;;
15177;SDS011;7689;53.612;-2.416;2022-11-20T02:39:21;5.00;;;3.00;;
15177;SDS011;7689;53.612;-2.416;2022-11-20T02:41:49;3.20;;;2.90;;
15177;SDS011;7689;53.612;-2.416;2022-11-20T02:44:17;3.20;;;3.00;;
15177;SDS011;7689;53.612;-2.416;2022-11-20T02:46:42;8.43;;;3.73;;
15177;SDS011;7689;53.612;-2.416;2022-11-20T02:49:08;5.00;;;3.23;;
15177;SDS011;7689;53.612;-2.416;2022-11-20T02:51:33;3.60;;;3.30;;
15177;SDS011;7689;53.612;-2.416;2022-11-20T02:53:59;5.47;;;3.23;;
15177;SDS011;7689;53.612;-2.416;2022-11-20T02:56:25;3.67;;;3.20;;
15177;SDS011;7689;53.612;-2.416;2022-11-20T02:58:51;3.83;;;2.77;;
15177;SDS011;7689;53.612;-2.416;2022-11-20T03:01:16;5.40;;;3.83;;
15177;SDS011;7689;53.612;-2.416;2022-11-20T03:03:42;5.07;;;3.60;;
15177;SDS011;7689;53.612;-2.416;2022-11-20T03:06:08;3.20;;;2.90;;
15177;SDS011;7689;53.612;-2.416;2022-11-20T03:08:34;5.00;;;3.50;;
15177;SDS011;7689;53.612;-2.416;2022-11-20T03:11:04;6.00;;;3.20;;
15177;SDS011;7689;53.612;-2.416;2022-11-20T03:13:31;3.77;;;3.00;;
15177;SDS011;7689;53.612;-2.416;2022-11-20T03:15:56;3.87;;;3.23;;
15177;SDS011;7689;53.612;-2.416;2022-11-20T03:18:22;5.30;;;3.50;;
15177;SDS011;7689;53.612;-2.416;2022-11-20T03:20:48;6.33;;;3.03;;
15177;SDS011;7689;53.612;-2.416;2022-11-20T03:23:13;2.93;;;2.70;;
15177;SDS011;7689;53.612;-2.416;2022-11-20T03:25:39;3.27;;;2.60;;
15177;SDS011;7689;53.612;-2.416;2022-11-20T03:28:05;2.90;;;2.60;;
15177;SDS011;7689;53.612;-2.416;2022-11-20T03:30:30;4.23;;;2.70;;
15177;SDS011;7689;53.612;-2.416;2022-11-20T03:32:56;4.13;;;2.93;;
15177;SDS011;7689;53.612;-2.416;2022-11-20T03:35:22;5.67;;;3.27;;
15177;SDS011;7689;53.612;-2.416;2022-11-20T03:37:47;3.00;;;2.80;;
15177;SDS011;7689;53.612;-2.416;2022-11-20T03:40:13;3.03;;;2.40;;
15177;SDS011;7689;53.612;-2.416;2022-11-20T03:42:39;3.73;;;2.73;;
15177;SDS011;7689;53.612;-2.416;2022-11-20T03:45:11;3.17;;;2.73;;
15177;SDS011;7689;53.612;-2.416;2022-11-20T03:47:38;3.43;;;2.77;;
15177;SDS011;7689;53.612;-2.416;2022-11-20T03:50:04;4.87;;;2.60;;
15177;SDS011;7689;53.612;-2.416;2022-11-20T03:52:30;2.90;;;2.70;;
15177;SDS011;7689;53.612;-2.416;2022-11-20T03:54:56;3.50;;;2.67;;
15177;SDS011;7689;53.612;-2.416;2022-11-20T03:57:21;3.17;;;2.87;;
15177;SDS011;7689;53.612;-2.416;2022-11-20T03:59:47;2.90;;;2.50;;
15177;SDS011;7689;53.612;-2.416;2022-11-20T04:02:12;2.83;;;2.40;;
15177;SDS011;7689;53.612;-2.416;2022-11-20T04:04:38;2.87;;;2.50;;
15177;SDS011;7689;53.612;-2.416;2022-11-20T04:07:04;3.33;;;2.73;;
15177;SDS011;7689;53.612;-2.416;2022-11-20T04:09:29;2.87;;;2.40;;
15177;SDS011;7689;53.612;-2.416;2022-11-20T04:11:55;2.63;;;2.43;;
15177;SDS011;7689;53.612;-2.416;2022-11-20T04:14:21;4.37;;;3.23;;
15177;SDS011;7689;53.612;-2.416;2022-11-20T04:16:46;2.97;;;2.73;;
15177;SDS011;7689;53.612;-2.416;2022-11-20T04:19:13;3.00;;;2.80;;
15177;SDS011;7689;53.612;-2.416;2022-11-20T04:21:41;3.20;;;2.83;;
15177;SDS011;7689;53.612;-2.416;2022-11-20T04:24:07;4.27;;;2.67;;
15177;SDS011;7689;53.612;-2.416;2022-11-20T04:26:33;3.47;;;3.17;;
15177;SDS011;7689;53.612;-2.416;2022-11-20T04:28:59;6.10;;;3.10;;
15177;SDS011;7689;53.612;-2.416;2022-11-20T04:31:29;3.97;;;3.63;;
15177;SDS011;7689;53.612;-2.416;2022-11-20T04:34:00;3.83;;;3.37;;
15177;SDS011;7689;53.612;-2.416;2022-11-20T04:36:27;5.00;;;3.37;;
15177;SDS011;7689;53.612;-2.416;2022-11-20T04:38:58;5.90;;;3.57;;
15177;SDS011;7689;53.612;-2.416;2022-11-20T04:41:26;4.23;;;3.87;;
15177;SDS011;7689;53.612;-2.416;2022-11-20T04:43:57;6.50;;;4.00;;
15177;SDS011;7689;53.612;-2.416;2022-11-20T04:46:27;4.33;;;3.93;;
15177;SDS011;7689;53.612;-2.416;2022-11-20T04:48:53;4.37;;;4.07;;
15177;SDS011;7689;53.612;-2.416;2022-11-20T04:51:19;5.37;;;4.40;;
15177;SDS011;7689;53.612;-2.416;2022-11-20T04:53:44;7.93;;;4.53;;
15177;SDS011;7689;53.612;-2.416;2022-11-20T04:56:11;4.60;;;4.20;;
15177;SDS011;7689;53.612;-2.416;2022-11-20T04:58:37;4.87;;;4.27;;
15177;SDS011;7689;53.612;-2.416;2022-11-20T05:01:09;8.33;;;4.63;;
15177;SDS011;7689;53.612;-2.416;2022-11-20T05:03:37;5.27;;;4.77;;
15177;SDS011;7689;53.612;-2.416;2022-11-20T05:06:03;6.50;;;4.97;;
15177;SDS011;7689;53.612;-2.416;2022-11-20T05:08:30;5.50;;;5.10;;
15177;SDS011;7689;53.612;-2.416;2022-11-20T05:11:01;4.80;;;4.40;;
15177;SDS011;7689;53.612;-2.416;2022-11-20T05:13:37;7.13;;;5.07;;
15177;SDS011;7689;53.612;-2.416;2022-11-20T05:16:07;6.03;;;5.00;;
15177;SDS011;7689;53.612;-2.416;2022-11-20T05:18:35;7.27;;;5.23;;
15177;SDS011;7689;53.612;-2.416;2022-11-20T05:21:01;6.87;;;5.23;;
15177;SDS011;7689;53.612;-2.416;2022-11-20T05:23:28;6.00;;;5.40;;
15177;SDS011;7689;53.612;-2.416;2022-11-20T05:25:55;5.73;;;5.23;;
15177;SDS011;7689;53.612;-2.416;2022-11-20T05:28:22;6.93;;;5.57;;
15177;SDS011;7689;53.612;-2.416;2022-11-20T05:30:48;6.87;;;5.67;;
15177;SDS011;7689;53.612;-2.416;2022-11-20T05:33:14;7.00;;;6.30;;
15177;SDS011;7689;53.612;-2.416;2022-11-20T05:35:40;7.50;;;6.63;;
15177;SDS011;7689;53.612;-2.416;2022-11-20T05:38:05;7.03;;;6.33;;
15177;SDS011;7689;53.612;-2.416;2022-11-20T05:40:31;8.10;;;6.27;;
15177;SDS011;7689;53.612;-2.416;2022-11-20T05:42:57;7.27;;;5.73;;
15177;SDS011;7689;53.612;-2.416;2022-11-20T05:45:23;7.80;;;6.50;;
15177;SDS011;7689;53.612;-2.416;2022-11-20T05:47:48;6.57;;;5.97;;
15177;SDS011;7689;53.612;-2.416;2022-11-20T05:50:14;6.60;;;5.97;;
15177;SDS011;7689;53.612;-2.416;2022-11-20T05:52:40;9.00;;;5.83;;
15177;SDS011;7689;53.612;-2.416;2022-11-20T05:55:06;6.40;;;5.87;;
15177;SDS011;7689;53.612;-2.416;2022-11-20T05:57:32;6.93;;;5.87;;
15177;SDS011;7689;53.612;-2.416;2022-11-20T05:59:58;6.93;;;6.23;;
15177;SDS011;7689;53.612;-2.416;2022-11-20T06:02:23;7.60;;;6.07;;
15177;SDS011;7689;53.612;-2.416;2022-11-20T06:04:49;8.33;;;6.20;;
15177;SDS011;7689;53.612;-2.416;2022-11-20T06:07:15;7.27;;;6.43;;
15177;SDS011;7689;53.612;-2.416;2022-11-20T06:09:41;4.97;;;4.50;;
15177;SDS011;7689;53.612;-2.416;2022-11-20T06:12:06;7.07;;;5.53;;
15177;SDS011;7689;53.612;-2.416;2022-11-20T06:14:32;5.83;;;5.33;;
15177;SDS011;7689;53.612;-2.416;2022-11-20T06:16:58;9.23;;;7.00;;
15177;SDS011;7689;53.612;-2.416;2022-11-20T06:19:24;7.40;;;6.77;;
15177;SDS011;7689;53.612;-2.416;2022-11-20T06:21:49;8.30;;;6.93;;
15177;SDS011;7689;53.612;-2.416;2022-11-20T06:24:15;6.93;;;6.23;;
15177;SDS011;7689;53.612;-2.416;2022-11-20T06:26:41;7.30;;;6.53;;
15177;SDS011;7689;53.612;-2.416;2022-11-20T06:29:07;10.00;;;7.33;;
15177;SDS011;7689;53.612;-2.416;2022-11-20T06:31:33;9.73;;;7.83;;
15177;SDS011;7689;53.612;-2.416;2022-11-20T06:34:02;9.10;;;7.73;;
15177;SDS011;7689;53.612;-2.416;2022-11-20T06:36:29;9.30;;;8.17;;
15177;SDS011;7689;53.612;-2.416;2022-11-20T06:38:54;10.40;;;7.77;;
15177;SDS011;7689;53.612;-2.416;2022-11-20T06:41:20;10.80;;;7.30;;
15177;SDS011;7689;53.612;-2.416;2022-11-20T06:43:47;10.83;;;8.07;;
15177;SDS011;7689;53.612;-2.416;2022-11-20T06:46:14;8.67;;;7.57;;
15177;SDS011;7689;53.612;-2.416;2022-11-20T06:48:42;10.80;;;8.63;;
15177;SDS011;7689;53.612;-2.416;2022-11-20T06:51:08;9.63;;;8.03;;
15177;SDS011;7689;53.612;-2.416;2022-11-20T06:53:34;10.73;;;8.37;;
15177;SDS011;7689;53.612;-2.416;2022-11-20T06:56:01;13.20;;;8.70;;
15177;SDS011;7689;53.612;-2.416;2022-11-20T06:58:27;11.87;;;8.77;;
15177;SDS011;7689;53.612;-2.416;2022-11-20T07:00:58;11.00;;;8.90;;
15177;SDS011;7689;53.612;-2.416;2022-11-20T07:03:24;10.13;;;8.87;;
15177;SDS011;7689;53.612;-2.416;2022-11-20T07:05:50;12.30;;;9.87;;
15177;SDS011;7689;53.612;-2.416;2022-11-20T07:08:15;12.93;;;8.37;;
15177;SDS011;7689;53.612;-2.416;2022-11-20T07:10:41;12.97;;;9.30;;
15177;SDS011;7689;53.612;-2.416;2022-11-20T07:13:07;14.97;;;9.70;;
15177;SDS011;7689;53.612;-2.416;2022-11-20T07:15:32;10.87;;;8.13;;
15177;SDS011;7689;53.612;-2.416;2022-11-20T07:17:59;8.87;;;7.97;;
15177;SDS011;7689;53.612;-2.416;2022-11-20T07:20:25;10.47;;;8.30;;
15177;SDS011;7689;53.612;-2.416;2022-11-20T07:22:57;10.47;;;9.40;;
15177;SDS011;7689;53.612;-2.416;2022-11-20T07:25:24;13.20;;;8.93;;
15177;SDS011;7689;53.612;-2.416;2022-11-20T07:27:51;15.87;;;9.03;;
15177;SDS011;7689;53.612;-2.416;2022-11-20T07:30:17;16.83;;;9.03;;
15177;SDS011;7689;53.612;-2.416;2022-11-20T07:32:46;12.43;;;8.33;;
15177;SDS011;7689;53.612;-2.416;2022-11-20T07:35:12;11.60;;;9.00;;
15177;SDS011;7689;53.612;-2.416;2022-11-20T07:37:38;12.07;;;8.77;;
15177;SDS011;7689;53.612;-2.416;2022-11-20T07:40:05;13.37;;;9.10;;
15177;SDS011;7689;53.612;-2.416;2022-11-20T07:42:31;14.23;;;9.87;;
15177;SDS011;7689;53.612;-2.416;2022-11-20T07:44:56;13.70;;;8.27;;
15177;SDS011;7689;53.612;-2.416;2022-11-20T07:47:22;12.83;;;9.03;;
15177;SDS011;7689;53.612;-2.416;2022-11-20T07:49:47;8.63;;;7.73;;
15177;SDS011;7689;53.612;-2.416;2022-11-20T07:52:13;12.43;;;8.00;;
15177;SDS011;7689;53.612;-2.416;2022-11-20T07:54:39;13.13;;;9.73;;
15177;SDS011;7689;53.612;-2.416;2022-11-20T07:57:04;15.23;;;10.30;;
15177;SDS011;7689;53.612;-2.416;2022-11-20T07:59:30;12.23;;;8.30;;
15177;SDS011;7689;53.612;-2.416;2022-11-20T08:01:55;15.27;;;8.77;;
15177;SDS011;7689;53.612;-2.416;2022-11-20T08:04:21;16.20;;;9.10;;
15177;SDS011;7689;53.612;-2.416;2022-11-20T08:06:48;14.37;;;10.30;;
15177;SDS011;7689;53.612;-2.416;2022-11-20T08:09:14;14.03;;;9.63;;
15177;SDS011;7689;53.612;-2.416;2022-11-20T08:11:39;13.63;;;9.23;;
15177;SDS011;7689;53.612;-2.416;2022-11-20T08:14:23;14.17;;;9.97;;
15177;SDS011;7689;53.612;-2.416;2022-11-20T08:16:49;18.73;;;9.67;;
15177;SDS011;7689;53.612;-2.416;2022-11-20T08:19:16;18.73;;;7.00;;
15177;SDS011;7689;53.612;-2.416;2022-11-20T08:21:43;12.43;;;6.03;;
15177;SDS011;7689;53.612;-2.416;2022-11-20T08:24:09;13.50;;;4.30;;
15177;SDS011;7689;53.612;-2.416;2022-11-20T08:26:36;8.73;;;3.20;;
15177;SDS011;7689;53.612;-2.416;2022-11-20T08:29:03;9.77;;;3.10;;
15177;SDS011;7689;53.612;-2.416;2022-11-20T08:31:29;13.70;;;3.40;;
15177;SDS011;7689;53.612;-2.416;2022-11-20T08:33:55;6.67;;;3.03;;
15177;SDS011;7689;53.612;-2.416;2022-11-20T08:36:21;13.23;;;3.60;;
15177;SDS011;7689;53.612;-2.416;2022-11-20T08:38:48;8.57;;;3.30;;
15177;SDS011;7689;53.612;-2.416;2022-11-20T08:41:15;8.40;;;3.53;;
15177;SDS011;7689;53.612;-2.416;2022-11-20T08:43:57;11.60;;;4.07;;
15177;SDS011;7689;53.612;-2.416;2022-11-20T08:46:37;13.93;;;5.00;;
15177;SDS011;7689;53.612;-2.416;2022-11-20T08:49:08;11.47;;;4.77;;
15177;SDS011;7689;53.612;-2.416;2022-11-20T08:51:35;8.77;;;3.27;;
15177;SDS011;7689;53.612;-2.416;2022-11-20T08:54:02;12.90;;;3.50;;
15177;SDS011;7689;53.612;-2.416;2022-11-20T08:56:28;6.27;;;2.30;;
15177;SDS011;7689;53.612;-2.416;2022-11-20T08:58:54;7.17;;;2.90;;
15177;SDS011;7689;53.612;-2.416;2022-11-20T09:01:20;9.30;;;2.50;;
15177;SDS011;7689;53.612;-2.416;2022-11-20T09:03:47;5.73;;;2.20;;
15177;SDS011;7689;53.612;-2.416;2022-11-20T09:06:13;8.83;;;2.90;;
15177;SDS011;7689;53.612;-2.416;2022-11-20T09:08:39;10.53;;;2.40;;
15177;SDS011;7689;53.612;-2.416;2022-11-20T09:11:05;7.93;;;2.73;;
15177;SDS011;7689;53.612;-2.416;2022-11-20T09:13:32;8.03;;;2.37;;
15177;SDS011;7689;53.612;-2.416;2022-11-20T09:16:00;10.80;;;2.57;;
15177;SDS011;7689;53.612;-2.416;2022-11-20T09:18:27;4.70;;;2.30;;
15177;SDS011;7689;53.612;-2.416;2022-11-20T09:20:57;9.93;;;3.83;;
15177;SDS011;7689;53.612;-2.416;2022-11-20T09:23:24;10.77;;;3.90;;
15177;SDS011;7689;53.612;-2.416;2022-11-20T09:25:50;8.07;;;3.20;;
15177;SDS011;7689;53.612;-2.416;2022-11-20T09:28:17;7.27;;;4.23;;
15177;SDS011;7689;53.612;-2.416;2022-11-20T09:30:45;11.30;;;4.90;;
15177;SDS011;7689;53.612;-2.416;2022-11-20T09:33:11;13.67;;;4.97;;
15177;SDS011;7689;53.612;-2.416;2022-11-20T09:35:36;8.67;;;3.00;;
15177;SDS011;7689;53.612;-2.416;2022-11-20T09:38:05;7.17;;;2.90;;
15177;SDS011;7689;53.612;-2.416;2022-11-20T09:40:32;5.80;;;1.80;;
15177;SDS011;7689;53.612;-2.416;2022-11-20T09:43:01;6.23;;;2.07;;
15177;SDS011;7689;53.612;-2.416;2022-11-20T09:48:48;9.63;;;2.30;;
15177;SDS011;7689;53.612;-2.416;2022-11-20T09:51:28;5.77;;;1.93;;
15177;SDS011;7689;53.612;-2.416;2022-11-20T09:54:22;4.93;;;2.00;;
15177;SDS011;7689;53.612;-2.416;2022-11-20T09:57:05;6.13;;;2.20;;
15177;SDS011;7689;53.612;-2.416;2022-11-20T09:59:37;11.17;;;2.27;;
15177;SDS011;7689;53.612;-2.416;2022-11-20T10:02:16;4.93;;;1.87;;
15177;SDS011;7689;53.612;-2.416;2022-11-20T10:04:51;4.10;;;1.70;;
15177;SDS011;7689;53.612;-2.416;2022-11-20T10:07:37;7.97;;;2.30;;
15177;SDS011;7689;53.612;-2.416;2022-11-20T10:10:03;10.13;;;2.90;;
15177;SDS011;7689;53.612;-2.416;2022-11-20T10:17:51;8.30;;;2.20;;
15177;SDS011;7689;53.612;-2.416;2022-11-20T10:24:18;4.63;;;1.90;;
15177;SDS011;7689;53.612;-2.416;2022-11-20T10:26:48;4.80;;;2.20;;
15177;SDS011;7689;53.612;-2.416;2022-11-20T10:29:34;11.27;;;2.40;;
15177;SDS011;7689;53.612;-2.416;2022-11-20T10:32:04;9.67;;;2.43;;
15177;SDS011;7689;53.612;-2.416;2022-11-20T10:37:23;8.03;;;2.30;;
15177;SDS011;7689;53.612;-2.416;2022-11-20T10:42:43;5.57;;;2.70;;
15177;SDS011;7689;53.612;-2.416;2022-11-20T10:45:20;8.63;;;2.93;;
15177;SDS011;7689;53.612;-2.416;2022-11-20T10:47:47;7.50;;;2.50;;
15177;SDS011;7689;53.612;-2.416;2022-11-20T10:50:14;12.77;;;2.57;;
15177;SDS011;7689;53.612;-2.416;2022-11-20T11:01:13;11.33;;;4.03;;
15177;SDS011;7689;53.612;-2.416;2022-11-20T11:03:41;9.20;;;2.67;;
15177;SDS011;7689;53.612;-2.416;2022-11-20T11:08:51;10.30;;;3.07;;
15177;SDS011;7689;53.612;-2.416;2022-11-20T11:11:22;6.37;;;2.37;;
15177;SDS011;7689;53.612;-2.416;2022-11-20T11:13:50;8.27;;;2.50;;
15177;SDS011;7689;53.612;-2.416;2022-11-20T11:16:20;6.77;;;2.20;;
15177;SDS011;7689;53.612;-2.416;2022-11-20T11:18:48;9.40;;;2.67;;
15177;SDS011;7689;53.612;-2.416;2022-11-20T11:21:14;9.33;;;2.73;;
15177;SDS011;7689;53.612;-2.416;2022-11-20T11:23:48;9.40;;;2.53;;
15177;SDS011;7689;53.612;-2.416;2022-11-20T11:26:26;7.17;;;2.33;;
15177;SDS011;7689;53.612;-2.416;2022-11-20T11:28:56;4.07;;;1.73;;
15177;SDS011;7689;53.612;-2.416;2022-11-20T11:31:23;8.90;;;2.10;;
15177;SDS011;7689;53.612;-2.416;2022-11-20T11:33:49;8.67;;;2.70;;
15177;SDS011;7689;53.612;-2.416;2022-11-20T11:36:19;8.13;;;2.30;;
15177;SDS011;7689;53.612;-2.416;2022-11-20T11:38:50;8.30;;;2.57;;
15177;SDS011;7689;53.612;-2.416;2022-11-20T11:41:20;12.40;;;2.47;;
15177;SDS011;7689;53.612;-2.416;2022-11-20T11:43:52;10.50;;;2.23;;
15177;SDS011;7689;53.612;-2.416;2022-11-20T11:46:39;8.07;;;2.40;;
15177;SDS011;7689;53.612;-2.416;2022-11-20T11:49:17;9.70;;;2.30;;
15177;SDS011;7689;53.612;-2.416;2022-11-20T11:57:23;7.73;;;2.80;;
15177;SDS011;7689;53.612;-2.416;2022-11-20T12:05:21;8.40;;;2.23;;
15177;SDS011;7689;53.612;-2.416;2022-11-20T12:10:59;6.93;;;2.10;;
15177;SDS011;7689;53.612;-2.416;2022-11-20T12:13:52;11.43;;;2.40;;
15177;SDS011;7689;53.612;-2.416;2022-11-20T12:16:23;8.23;;;2.10;;
15177;SDS011;7689;53.612;-2.416;2022-11-20T12:18:50;9.37;;;2.47;;
15177;SDS011;7689;53.612;-2.416;2022-11-20T12:37:38;12.87;;;2.97;;
15177;SDS011;7689;53.612;-2.416;2022-11-20T12:57:00;6.33;;;1.93;;
15177;SDS011;7689;53.612;-2.416;2022-11-20T13:02:27;3.03;;;1.30;;
15177;SDS011;7689;53.612;-2.416;2022-11-20T13:07:50;4.43;;;1.47;;
15177;SDS011;7689;53.612;-2.416;2022-11-20T13:13:45;5.30;;;1.13;;
15177;SDS011;7689;53.612;-2.416;2022-11-20T13:15:59;4.17;;;1.30;;
15177;SDS011;7689;53.612;-2.416;2022-11-20T13:18:36;3.23;;;1.47;;
15177;SDS011;7689;53.612;-2.416;2022-11-20T13:24:07;4.27;;;1.77;;
15177;SDS011;7689;53.612;-2.416;2022-11-20T13:29:34;5.50;;;2.00;;
15177;SDS011;7689;53.612;-2.416;2022-11-20T13:34:38;6.90;;;1.80;;
15177;SDS011;7689;53.612;-2.416;2022-11-20T13:37:04;6.73;;;1.80;;
15177;SDS011;7689;53.612;-2.416;2022-11-20T13:39:32;5.83;;;1.77;;
15177;SDS011;7689;53.612;-2.416;2022-11-20T13:42:00;3.60;;;1.83;;
15177;SDS011;7689;53.612;-2.416;2022-11-20T13:44:48;4.80;;;1.77;;
15177;SDS011;7689;53.612;-2.416;2022-11-20T13:47:27;7.30;;;2.33;;
15177;SDS011;7689;53.612;-2.416;2022-11-20T13:49:55;4.23;;;1.70;;
15177;SDS011;7689;53.612;-2.416;2022-11-20T13:55:22;6.37;;;1.90;;
15177;SDS011;7689;53.612;-2.416;2022-11-20T14:01:41;6.33;;;1.83;;
15177;SDS011;7689;53.612;-2.416;2022-11-20T14:03:53;6.90;;;2.03;;
15177;SDS011;7689;53.612;-2.416;2022-11-20T14:06:29;5.33;;;1.93;;
15177;SDS011;7689;53.612;-2.416;2022-11-20T14:08:57;7.97;;;2.97;;
15177;SDS011;7689;53.612;-2.416;2022-11-20T14:14:04;5.73;;;2.77;;
15177;SDS011;7689;53.612;-2.416;2022-11-20T14:16:47;4.17;;;2.10;;
15177;SDS011;7689;53.612;-2.416;2022-11-20T14:21:52;1.47;;;1.37;;
15177;SDS011;7689;53.612;-2.416;2022-11-20T14:25:02;3.40;;;1.60;;
15177;SDS011;7689;53.612;-2.416;2022-11-20T14:27:33;1.63;;;1.30;;
15177;SDS011;7689;53.612;-2.416;2022-11-20T14:30:02;1.47;;;1.03;;
15177;SDS011;7689;53.612;-2.416;2022-11-20T14:32:28;0.70;;;0.70;;
15177;SDS011;7689;53.612;-2.416;2022-11-20T14:34:56;1.93;;;1.00;;
15177;SDS011;7689;53.612;-2.416;2022-11-20T14:37:26;1.43;;;1.17;;
15177;SDS011;7689;53.612;-2.416;2022-11-20T14:39:57;1.20;;;1.20;;
15177;SDS011;7689;53.612;-2.416;2022-11-20T14:42:27;2.23;;;1.27;;
15177;SDS011;7689;53.612;-2.416;2022-11-20T14:44:57;2.13;;;1.53;;
15177;SDS011;7689;53.612;-2.416;2022-11-20T14:47:25;1.57;;;1.17;;
15177;SDS011;7689;53.612;-2.416;2022-11-20T14:49:54;1.13;;;1.03;;
15177;SDS011;7689;53.612;-2.416;2022-11-20T14:52:22;0.70;;;0.70;;
15177;SDS011;7689;53.612;-2.416;2022-11-20T14:54:50;1.00;;;0.90;;
15177;SDS011;7689;53.612;-2.416;2022-11-20T14:59:50;0.80;;;0.80;;
15177;SDS011;7689;53.612;-2.416;2022-11-20T15:02:15;1.30;;;1.20;;
15177;SDS011;7689;53.612;-2.416;2022-11-20T15:04:48;2.40;;;1.67;;
15177;SDS011;7689;53.612;-2.416;2022-11-20T15:07:25;1.33;;;1.30;;
15177;SDS011;7689;53.612;-2.416;2022-11-20T15:10:27;1.37;;;1.00;;
15177;SDS011;7689;53.612;-2.416;2022-11-20T15:15:24;1.20;;;1.10;;
15177;SDS011;7689;53.612;-2.416;2022-11-20T15:17:57;1.67;;;1.13;;
15177;SDS011;7689;53.612;-2.416;2022-11-20T15:20:32;1.90;;;1.30;;
15177;SDS011;7689;53.612;-2.416;2022-11-20T15:23:00;2.67;;;1.00;;
15177;SDS011;7689;53.612;-2.416;2022-11-20T15:25:26;2.20;;;1.37;;
15177;SDS011;7689;53.612;-2.416;2022-11-20T15:27:54;2.03;;;1.43;;
15177;SDS011;7689;53.612;-2.416;2022-11-20T15:30:21;2.13;;;1.30;;
15177;SDS011;7689;53.612;-2.416;2022-11-20T15:32:47;1.50;;;1.40;;
15177;SDS011;7689;53.612;-2.416;2022-11-20T15:35:14;1.47;;;1.37;;
15177;SDS011;7689;53.612;-2.416;2022-11-20T15:37:41;2.23;;;1.83;;
15177;SDS011;7689;53.612;-2.416;2022-11-20T15:40:07;1.80;;;1.70;;
15177;SDS011;7689;53.612;-2.416;2022-11-20T15:42:33;5.33;;;1.70;;
15177;SDS011;7689;53.612;-2.416;2022-11-20T15:44:59;2.37;;;1.57;;
15177;SDS011;7689;53.612;-2.416;2022-11-20T15:47:26;4.93;;;1.70;;
15177;SDS011;7689;53.612;-2.416;2022-11-20T15:49:55;2.30;;;1.50;;
15177;SDS011;7689;53.612;-2.416;2022-11-20T15:52:22;2.43;;;1.60;;
15177;SDS011;7689;53.612;-2.416;2022-11-20T15:54:48;2.60;;;1.40;;
15177;SDS011;7689;53.612;-2.416;2022-11-20T15:57:13;2.27;;;1.40;;
15177;SDS011;7689;53.612;-2.416;2022-11-20T15:59:39;2.07;;;1.30;;
15177;SDS011;7689;53.612;-2.416;2022-11-20T16:02:10;3.10;;;1.60;;
15177;SDS011;7689;53.612;-2.416;2022-11-20T16:04:36;1.60;;;1.50;;
15177;SDS011;7689;53.612;-2.416;2022-11-20T16:07:02;1.60;;;1.40;;
15177;SDS011;7689;53.612;-2.416;2022-11-20T16:09:28;2.10;;;2.00;;
15177;SDS011;7689;53.612;-2.416;2022-11-20T16:11:53;2.70;;;1.67;;
15177;SDS011;7689;53.612;-2.416;2022-11-20T16:14:19;4.30;;;1.87;;
15177;SDS011;7689;53.612;-2.416;2022-11-20T16:17:03;2.60;;;1.70;;
15177;SDS011;7689;53.612;-2.416;2022-11-20T16:19:29;1.63;;;1.53;;
15177;SDS011;7689;53.612;-2.416;2022-11-20T16:21:56;3.57;;;1.80;;
15177;SDS011;7689;53.612;-2.416;2022-11-20T16:24:22;1.97;;;1.87;;
15177;SDS011;7689;53.612;-2.416;2022-11-20T16:26:48;1.83;;;1.50;;
15177;SDS011;7689;53.612;-2.416;2022-11-20T16:29:13;1.30;;;1.20;;
15177;SDS011;7689;53.612;-2.416;2022-11-20T16:31:39;2.90;;;1.60;;
15177;SDS011;7689;53.612;-2.416;2022-11-20T16:34:05;2.10;;;1.30;;
15177;SDS011;7689;53.612;-2.416;2022-11-20T16:36:32;2.57;;;1.40;;
15177;SDS011;7689;53.612;-2.416;2022-11-20T16:38:59;2.80;;;1.77;;
15177;SDS011;7689;53.612;-2.416;2022-11-20T16:41:26;1.47;;;1.20;;
15177;SDS011;7689;53.612;-2.416;2022-11-20T16:43:53;3.07;;;1.50;;
15177;SDS011;7689;53.612;-2.416;2022-11-20T16:46:24;1.60;;;1.50;;
15177;SDS011;7689;53.612;-2.416;2022-11-20T16:48:58;2.93;;;1.77;;
15177;SDS011;7689;53.612;-2.416;2022-11-20T16:51:25;2.50;;;2.23;;